Time;durP1;ratioP1;P1;durP2;ratioP2;P2;SDS_P1;SDS_P2;PMS_P1;PMS_P2;Temp;Humidity;BMP_temperature;BMP_pressure;BME280_temperature;BME280_humidity;BME280_pressure;Samples;Min_cycle;Max_cycle;Signal;HPM_P1;HPM_P2
2021/04/01 00:01:18;;;;;;;37.48;28.30;;;;;;;10.17;75.31;100005.12;1800014;78;25725;-64
2021/04/01 00:03:46;;;;;;;35.55;25.32;;;;;;;10.06;75.25;100002.90;1782140;78;21631;-66
2021/04/01 00:06:15;;;;;;;40.15;26.97;;;;;;;10.11;75.53;100003.57;1781920;78;21670;-64
2021/04/01 00:08:43;;;;;;;36.00;26.90;;;;;;;10.20;75.50;99999.77;1790765;78;21657;-64
2021/04/01 00:11:11;;;;;;;;;;;;;;;10.16;75.45;99992.91;1800174;78;21523;-65
2021/04/01 00:13:39;;;;;;;34.00;26.40;;;;;;;10.13;75.76;99985.98;1789283;79;20548;-64
2021/04/01 00:16:08;;;;;;;34.88;25.85;;;;;;;10.11;75.45;99989.12;1770694;79;21532;-65
2021/04/01 00:18:38;;;;;;;37.53;26.37;;;;;;;10.08;75.50;99988.78;1758935;79;21703;-65
2021/04/01 00:21:06;;;;;;;39.05;26.45;;;;;;;10.14;75.72;99978.52;1784135;78;21664;-65
2021/04/01 00:23:34;;;;;;;39.38;29.20;;;;;;;10.23;75.51;99982.59;1759262;79;22025;-64
2021/04/01 00:26:02;;;;;;;36.70;26.40;;;;;;;10.23;75.35;99983.44;1775505;79;21565;-66
2021/04/01 00:28:30;;;;;;;37.03;27.87;;;;;;;10.16;75.32;99974.52;1792584;78;21193;-65
2021/04/01 00:30:58;;;;;;;41.63;28.38;;;;;;;10.10;75.40;99974.28;1804461;78;21713;-65
2021/04/01 00:33:26;;;;;;;40.00;27.25;;;;;;;9.98;75.50;99970.30;1766311;79;21229;-66
2021/04/01 00:35:53;;;;;;;38.10;26.57;;;;;;;10.01;75.89;99970.67;1785924;78;22077;-67
2021/04/01 00:38:21;;;;;;;40.38;27.50;;;;;;;10.10;75.70;99971.20;1782599;78;21626;-65
2021/04/01 00:40:50;;;;;;;34.85;26.05;;;;;;;10.09;75.56;99962.90;1763893;80;21635;-65
2021/04/01 00:43:18;;;;;;;36.65;27.48;;;;;;;10.09;75.51;99968.61;1802031;78;21221;-66
2021/04/01 00:45:47;;;;;;;37.40;28.25;;;;;;;10.06;75.38;99964.34;1769765;79;21632;-65
2021/04/01 00:48:16;;;;;;;36.80;26.52;;;;;;;10.03;75.37;99951.77;1793788;78;22064;-65
2021/04/01 00:50:44;;;;;;;37.90;26.77;;;;;;;10.03;75.81;99951.30;1796249;78;21646;-65
2021/04/01 00:53:13;;;;;;;39.73;27.82;;;;;;;10.05;75.78;99949.47;1774277;80;21720;-65
2021/04/01 00:55:40;;;;;;;;;;;;;;;9.97;75.78;99938.39;1777423;79;21610;-66
2021/04/01 00:58:08;;;;;;;40.65;28.42;;;;;;;9.88;75.98;99934.31;1766407;78;27294;-65
2021/04/01 01:00:37;;;;;;;37.35;28.32;;;;;;;9.80;75.91;99939.45;1752127;79;21991;-65
2021/04/01 01:03:05;;;;;;;37.28;27.32;;;;;;;9.73;75.89;99936.17;1784714;78;21189;-65
2021/04/01 01:05:35;;;;;;;40.12;28.65;;;;;;;9.73;76.26;99933.08;1737057;80;21682;-66
2021/04/01 01:08:04;;;;;;;37.23;27.07;;;;;;;9.80;76.17;99931.58;1765685;80;21603;-66
2021/04/01 01:10:32;;;;;;;34.67;26.82;;;;;;;9.78;76.01;99932.09;1767522;80;21206;-63
2021/04/01 01:13:02;;;;;;;39.60;28.52;;;;;;;9.70;76.08;99936.27;1776168;79;21673;-64
2021/04/01 01:15:31;;;;;;;37.80;27.93;;;;;;;9.65;76.06;99932.50;1787515;78;21658;-64
2021/04/01 01:17:59;;;;;;;37.30;28.07;;;;;;;9.68;76.43;99929.78;1793621;78;21646;-64
2021/04/01 01:20:27;;;;;;;38.95;27.98;;;;;;;9.74;76.22;99929.55;1798238;78;21117;-64
2021/04/01 01:22:57;;;;;;;38.13;27.60;;;;;;;9.74;76.08;99929.55;1771469;79;21134;-64
2021/04/01 01:25:25;;;;;;;37.13;27.65;;;;;;;9.70;76.09;99921.39;1759643;79;21896;-65
2021/04/01 01:27:53;;;;;;;43.30;28.05;;;;;;;9.65;76.08;99920.69;1772066;78;21646;-65
2021/04/01 01:30:22;;;;;;;38.85;27.80;;;;;;;9.70;76.46;99917.87;1801472;78;21647;-65
2021/04/01 01:32:57;;;;;;;38.67;28.07;;;;;;;9.76;76.36;99911.13;1790510;78;21110;-65
2021/04/01 01:35:26;;;;;;;40.67;28.87;;;;;;;9.75;76.17;99908.08;1791969;78;21535;-65
2021/04/01 01:37:58;;;;;;;37.20;28.65;;;;;;;9.70;76.17;99905.63;1788305;78;22144;-65
2021/04/01 01:40:27;;;;;;;37.95;26.73;;;;;;;9.66;76.12;99901.41;1788773;78;21629;-64
2021/04/01 01:42:57;;;;;;;45.08;28.07;;;;;;;9.70;76.64;99902.13;1774741;79;21692;-64
2021/04/01 01:45:27;;;;;;;45.05;28.32;;;;;;;9.78;76.32;99905.36;1785598;78;21654;-65
2021/04/01 01:47:56;;;;;;;37.03;28.98;;;;;;;9.72;76.28;99906.90;1772777;79;21596;-64
2021/04/01 01:50:29;;;;;;;42.95;29.67;;;;;;;9.70;76.24;99908.27;1760052;78;22095;-70
2021/04/01 01:52:57;;;;;;;43.00;28.57;;;;;;;9.63;76.33;99900.19;1779822;78;21603;-63
2021/04/01 01:55:26;;;;;;;40.67;28.52;;;;;;;9.68;76.65;99901.33;1789469;78;21666;-64
2021/04/01 01:57:53;;;;;;;37.42;28.23;;;;;;;9.79;76.54;99901.80;1790440;78;21185;-65
2021/04/01 02:00:37;;;;;;;;;;;;;;;9.79;76.51;99895.24;1773396;80;21641;-65
2021/04/01 02:03:06;;;;;;;43.80;29.82;;;;;;;9.76;76.53;99890.12;1763898;78;21790;-64
2021/04/01 02:05:36;;;;;;;40.50;26.45;;;;;;;9.71;76.21;99891.58;1770913;79;21661;-64
2021/04/01 02:08:06;;;;;;;43.23;28.95;;;;;;;9.78;76.64;99887.45;1775557;78;21124;-64
2021/04/01 02:10:40;;;;;;;46.15;29.35;;;;;;;9.80;76.44;99881.68;1751969;79;21588;-64
2021/04/01 02:13:10;;;;;;;43.25;30.48;;;;;;;9.74;76.36;99880.98;1780234;79;21658;-64
2021/04/01 02:15:40;;;;;;;42.85;30.15;;;;;;;9.67;76.38;99883.41;1771864;79;22105;-64
2021/04/01 02:18:13;;;;;;;41.58;28.50;;;;;;;9.63;76.60;99883.12;1792654;78;21162;-64
2021/04/01 02:20:43;;;;;;;40.30;27.80;;;;;;;9.66;76.95;99885.66;1792528;78;21613;-64
2021/04/01 02:23:16;;;;;;;40.58;27.98;;;;;;;9.70;76.83;99885.94;1795983;78;21598;-64
2021/04/01 02:25:46;;;;;;;42.30;29.87;;;;;;;9.67;76.73;99887.34;1763740;79;21602;-64
2021/04/01 02:28:16;;;;;;;42.93;29.82;;;;;;;9.62;76.81;99879.23;1762299;79;22561;-64
2021/04/01 02:30:46;;;;;;;42.03;29.70;;;;;;;9.57;76.82;99881.16;1754793;79;21510;-65
2021/04/01 02:33:15;;;;;;;38.75;28.38;;;;;;;9.62;77.14;99873.98;1756746;79;22290;-65
2021/04/01 02:35:43;;;;;;;41.85;29.65;;;;;;;9.74;76.95;99880.13;1708752;81;21618;-65
2021/04/01 02:38:11;;;;;;;;;;;;;;;9.71;76.81;99877.14;1774739;79;21579;-64
2021/04/01 02:40:39;;;;;;;41.73;28.60;;;;;;;9.68;77.08;99881.64;1709362;81;22113;-65
2021/04/01 02:43:08;;;;;;;44.85;29.40;;;;;;;9.62;76.83;99874.83;1768723;79;21575;-64
2021/04/01 02:45:35;;;;;;;40.98;29.32;;;;;;;9.63;76.85;99871.31;1709319;82;21617;-64
2021/04/01 02:48:04;;;;;;;40.33;30.02;;;;;;;9.72;77.02;99872.30;1709311;82;21657;-64
2021/04/01 02:50:32;;;;;;;42.55;29.72;;;;;;;9.78;76.73;99872.54;1765731;79;21575;-63
2021/04/01 02:53:00;;;;;;;47.10;30.35;;;;;;;9.73;76.73;99874.46;1714109;81;21836;-65
2021/04/01 02:55:27;;;;;;;43.52;28.62;;;;;;;9.70;76.64;99870.62;1774560;79;21627;-63
2021/04/01 02:57:55;;;;;;;39.53;29.65;;;;;;;9.65;76.62;99876.05;1715653;81;28654;-64
2021/04/01 03:00:26;;;;;;;;;;;;;;;9.69;76.96;99876.34;1762943;79;21138;-64
2021/04/01 03:02:56;;;;;;;45.30;30.68;;;;;;;9.78;76.90;99869.06;1762002;79;20763;-65
2021/04/01 03:05:22;;;;;;;42.62;29.50;;;;;;;9.71;76.71;99867.09;1760820;79;21863;-67
2021/04/01 03:07:49;;;;;;;;;;;;;;;9.68;76.75;99866.77;1755690;80;21253;-65
2021/04/01 03:10:17;;;;;;;45.00;29.40;;;;;;;9.64;76.93;99866.44;1748433;80;20735;-65
2021/04/01 03:12:44;;;;;;;40.70;30.35;;;;;;;9.60;76.69;99865.31;1757240;79;21685;-65
2021/04/01 03:15:14;;;;;;;45.15;30.40;;;;;;;9.65;76.95;99868.17;1723670;81;22688;-65
2021/04/01 03:17:42;;;;;;;43.95;30.88;;;;;;;9.74;76.83;99865.22;1761933;79;22033;-65
2021/04/01 03:20:11;;;;;;;41.15;30.75;;;;;;;9.73;76.66;99869.21;1708108;81;21629;-66
2021/04/01 03:22:40;;;;;;;41.58;30.08;;;;;;;9.68;76.72;99866.77;1769155;79;21567;-66
2021/04/01 03:25:09;;;;;;;41.53;29.98;;;;;;;9.66;76.67;99864.66;1724693;81;21646;-66
2021/04/01 03:27:38;;;;;;;42.10;29.37;;;;;;;9.65;76.73;99863.39;1732464;81;21563;-65
2021/04/01 03:30:09;;;;;;;41.33;30.37;;;;;;;9.72;76.97;99859.17;1735656;81;22074;-65
2021/04/01 03:32:40;;;;;;;43.08;30.48;;;;;;;9.77;76.80;99862.08;1728332;81;21193;-65
2021/04/01 03:35:10;;;;;;;45.73;29.67;;;;;;;9.73;76.68;99863.50;1725490;81;21535;-65
2021/04/01 03:37:39;;;;;;;44.30;31.55;;;;;;;9.67;76.64;99855.84;1727662;81;21909;-66
2021/04/01 03:40:07;;;;;;;44.27;29.67;;;;;;;9.64;76.63;99860.34;1725695;81;21591;-66
2021/04/01 03:42:37;;;;;;;42.70;30.08;;;;;;;9.64;76.94;99853.31;1721611;81;22082;-66
2021/04/01 03:45:10;;;;;;;46.08;32.83;;;;;;;9.69;76.84;99853.17;1733574;81;21928;-66
2021/04/01 03:47:38;;;;;;;43.28;31.02;;;;;;;9.63;76.76;99851.63;1724147;81;21671;-66
2021/04/01 03:50:08;;;;;;;43.00;33.02;;;;;;;9.58;76.79;99856.63;1725108;81;21591;-65
2021/04/01 03:52:36;;;;;;;47.03;31.05;;;;;;;9.50;76.79;99855.59;1727639;81;21603;-65
2021/04/01 03:56:30;;;;;;;48.78;33.45;;;;;;;9.63;77.10;99850.77;1751957;79;23235;-64
2021/04/01 04:04:26;;;;;;;51.45;34.53;;;;;;;9.47;76.75;99849.13;1791424;77;21536;-67
2021/04/01 04:07:28;;;;;;;48.38;33.55;;;;;;;9.40;77.18;99844.56;1779427;77;22056;-64
2021/04/01 04:12:32;;;;;;;52.45;36.03;;;;;;;9.47;77.05;99843.41;1775872;78;21635;-65
2021/04/01 04:15:08;;;;;;;49.77;37.95;;;;;;;9.43;76.98;99837.03;1785639;77;21542;-65
2021/04/01 04:17:33;;;;;;;55.43;35.73;;;;;;;9.39;77.00;99840.67;1780623;77;21555;-65
2021/04/01 04:20:01;;;;;;;50.60;35.10;;;;;;;9.35;77.15;99835.52;1777935;79;22411;-65
2021/04/01 04:22:29;;;;;;;54.77;35.13;;;;;;;9.44;77.38;99836.13;1795390;77;21638;-66
2021/04/01 04:24:57;;;;;;;51.30;35.78;;;;;;;9.48;77.17;99828.55;1774944;77;21501;-65
2021/04/01 04:29:59;;;;;;;54.05;36.23;;;;;;;9.41;77.09;99831.83;1738768;80;21709;-64
2021/04/01 04:32:35;;;;;;;49.98;36.53;;;;;;;9.37;77.10;99825.44;1706357;81;22447;-65
2021/04/01 04:35:04;;;;;;;54.60;34.92;;;;;;;9.41;77.57;99825.27;1740716;79;21654;-65
2021/04/01 04:37:33;;;;;;;52.45;35.48;;;;;;;9.47;77.36;99824.19;1743975;80;21591;-65
2021/04/01 04:40:01;;;;;;;;;;;;;;;9.46;77.32;99823.81;1752688;79;21583;-65
2021/04/01 04:42:29;;;;;;;46.18;32.88;;;;;;;9.42;77.56;99820.86;1749897;79;20580;-65
2021/04/01 04:44:57;;;;;;;;;;;;;;;9.40;77.40;99824.00;1749507;79;22006;-65
2021/04/01 04:47:24;;;;;;;43.48;33.10;;;;;;;9.44;77.74;99818.61;1750272;79;20315;-64
2021/04/01 04:49:52;;;;;;;;;;;;;;;9.56;77.50;99812.05;1747960;80;21658;-64
2021/04/01 04:52:20;;;;;;;50.55;33.50;;;;;;;9.59;77.46;99808.45;1764247;79;20313;-65
2021/04/01 04:54:48;;;;;;;45.65;33.15;;;;;;;9.57;77.26;99810.28;1750295;79;21694;-65
2021/04/01 05:05:08;;;;;;;49.35;32.42;;;;;;;9.73;76.93;99796.54;1741635;79;21620;-65
2021/04/01 05:07:36;;;;;;;48.63;32.08;;;;;;;9.71;76.83;99794.42;1750514;79;21645;-65
2021/04/01 05:10:05;;;;;;;43.65;31.80;;;;;;;9.69;76.61;99796.72;1743704;80;22093;-65
2021/04/01 05:12:32;;;;;;;47.90;32.98;;;;;;;9.72;76.90;99792.22;1751182;80;21538;-65
2021/04/01 05:15:00;;;;;;;42.40;32.25;;;;;;;9.83;76.56;99790.95;1749792;79;21536;-65
2021/04/01 05:17:28;;;;;;;55.35;33.15;;;;;;;9.86;76.29;99791.69;1744545;80;21603;-65
2021/04/01 05:20:04;;;;;;;45.43;32.73;;;;;;;9.86;76.13;99784.28;1748708;79;21691;-65
2021/04/01 05:22:42;;;;;;;45.30;31.17;;;;;;;9.88;75.96;99787.70;1717703;80;22078;-66
2021/04/01 05:25:07;;;;;;;48.60;30.45;;;;;;;9.96;76.34;99789.56;1698847;81;21206;-65
2021/04/01 05:27:41;;;;;;;49.27;31.80;;;;;;;10.08;75.79;99793.05;1694047;82;21612;-65
2021/04/01 05:30:06;;;;;;;46.98;31.10;;;;;;;10.12;75.42;99787.23;1712517;82;21599;-65
2021/04/01 05:32:37;;;;;;;44.95;31.45;;;;;;;10.13;75.24;99791.12;1743508;80;21671;-65
2021/04/01 05:35:08;;;;;;;45.73;30.10;;;;;;;10.17;75.25;99789.23;1737594;79;22004;-66
2021/04/01 05:37:37;;;;;;;44.35;29.75;;;;;;;10.28;75.38;99785.73;1750928;79;21631;-67
2021/04/01 05:40:09;;;;;;;43.73;29.63;;;;;;;10.43;74.70;99788.67;1748415;79;21594;-65
2021/04/01 05:42:40;;;;;;;43.63;31.02;;;;;;;10.42;74.41;99782.58;1740453;79;21696;-64
2021/04/01 05:45:38;;;;;;;41.90;30.12;;;;;;;10.42;74.19;99782.58;1738862;80;21688;-65
2021/04/01 05:47:43;;;;;;;43.35;28.60;;;;;;;10.46;74.02;99784.62;1734382;79;21636;-68
2021/04/01 05:50:27;;;;;;;44.70;30.10;;;;;;;10.56;74.31;99781.16;1737387;80;21650;-66
2021/04/01 06:01:30;;;;;;;46.53;28.25;;;;;;;10.97;72.55;99773.34;1700106;82;21951;-64
2021/04/01 06:04:03;;;;;;;40.23;27.55;;;;;;;11.00;72.60;99775.38;1707892;82;21600;-64
2021/04/01 06:09:06;;;;;;;41.80;28.55;;;;;;;11.14;71.92;99758.98;1663686;83;21685;-66
2021/04/01 06:11:34;;;;;;;40.85;28.83;;;;;;;11.09;71.90;99763.59;1643381;84;21639;-63
2021/04/01 16:30:57;;;;;;;22.55;16.82;;;;;;;15.44;49.52;99055.84;1751133;78;23069;-61
2021/04/01 16:33:27;;;;;;;22.25;15.38;;;;;;;15.36;49.68;99061.70;1718182;82;21665;-62
2021/04/01 16:35:55;;;;;;;23.87;15.55;;;;;;;15.34;50.41;99067.59;1717126;80;22011;-63
2021/04/01 16:38:23;;;;;;;20.32;15.23;;;;;;;15.32;50.97;99065.53;1688810;82;21557;-64
2021/04/01 16:40:53;;;;;;;27.07;15.88;;;;;;;15.29;51.37;99061.28;1719467;82;21584;-64
2021/04/01 16:43:25;;;;;;;25.75;15.72;;;;;;;15.28;51.71;99061.41;1713011;82;21655;-66
2021/04/01 16:45:55;;;;;;;24.50;16.97;;;;;;;15.23;51.97;99056.91;1713774;80;21166;-64
2021/04/01 16:48:26;;;;;;;22.52;15.60;;;;;;;15.22;52.12;99059.18;1714516;80;22079;-64
2021/04/01 16:50:55;;;;;;;26.20;16.60;;;;;;;15.22;52.30;99057.41;1709241;82;21142;-68
2021/04/01 16:53:36;;;;;;;26.73;16.60;;;;;;;15.18;52.46;99058.09;1715307;80;21495;-68
2021/04/01 16:56:05;;;;;;;27.67;16.45;;;;;;;15.14;52.58;99050.01;1713401;80;21183;-67
2021/04/01 16:58:33;;;;;;;26.40;18.23;;;;;;;15.11;52.73;99048.89;1692685;82;21622;-65
2021/04/01 17:01:02;;;;;;;22.90;16.10;;;;;;;15.07;52.95;99046.55;1708980;80;21935;-65
2021/04/01 17:03:34;;;;;;;31.62;17.15;;;;;;;15.04;53.09;99048.95;1720373;80;21611;-63
2021/04/01 17:06:03;;;;;;;26.93;16.62;;;;;;;15.03;53.19;99046.41;1717316;82;21710;-61
2021/04/01 17:08:31;;;;;;;22.20;16.52;;;;;;;15.01;53.31;99047.83;1711605;82;21595;-63
2021/04/01 17:11:00;;;;;;;28.92;17.35;;;;;;;14.97;53.40;99052.98;1715471;80;21131;-62
2021/04/01 17:13:28;;;;;;;26.57;18.73;;;;;;;14.93;53.57;99049.70;1717525;82;21998;-62
2021/04/01 17:15:58;;;;;;;28.70;18.70;;;;;;;14.89;53.69;99051.36;1718248;80;21659;-62
2021/04/01 17:18:30;;;;;;;29.45;19.75;;;;;;;14.84;53.85;99052.14;1716598;80;21600;-61
2021/04/01 17:20:56;;;;;;;35.52;20.02;;;;;;;14.82;54.06;99052.73;1719306;80;21153;-62
2021/04/01 17:23:24;;;;;;;36.73;22.87;;;;;;;14.75;54.12;99053.17;1712559;80;21775;-62
2021/04/01 17:25:52;;;;;;;34.15;23.77;;;;;;;14.73;54.27;99055.53;1710286;82;22088;-62
2021/04/01 17:28:20;;;;;;;37.80;24.98;;;;;;;14.67;54.47;99055.97;1717273;82;21603;-61
2021/04/01 17:30:48;;;;;;;38.13;24.07;;;;;;;14.62;54.62;99052.33;1709710;82;21120;-61
2021/04/01 17:33:16;;;;;;;35.23;24.05;;;;;;;14.60;54.71;99058.20;1706920;82;21993;-64
2021/04/01 17:35:44;;;;;;;35.78;23.27;;;;;;;14.58;54.73;99058.78;1710390;80;27251;-61
2021/04/01 17:38:12;;;;;;;31.33;22.95;;;;;;;14.55;54.84;99053.17;1710052;80;22110;-62
2021/04/01 17:40:40;;;;;;;39.30;23.05;;;;;;;14.54;54.98;99057.25;1705887;82;21564;-61
2021/04/01 17:43:08;;;;;;;33.73;23.60;;;;;;;14.50;55.10;99053.96;1710156;82;21596;-60
2021/04/01 17:45:37;;;;;;;29.87;21.25;;;;;;;14.47;55.27;99050.70;1708731;80;21628;-61
2021/04/01 17:48:07;;;;;;;;;;;;;;;14.40;55.46;99048.45;1712776;82;21651;-63
2021/04/01 17:50:35;;;;;;;37.03;22.70;;;;;;;14.36;55.63;99056.23;1707579;82;22066;-65
2021/04/01 17:53:04;;;;;;;38.65;24.32;;;;;;;14.30;55.66;99048.72;1706971;80;21639;-61
2021/04/01 17:58:22;;;;;;;38.55;24.65;;;;;;;14.26;56.12;99043.28;1850264;75;22541;-64
2021/04/01 18:28:12;;;;;;;;;;;;;;;13.67;57.66;99044.11;1835231;75;21552;-58
2021/04/01 18:30:42;;;;;;;40.43;26.68;;;;;;;13.63;57.86;99050.06;1836884;76;24012;-62
2021/04/01 18:33:16;;;;;;;37.78;25.97;;;;;;;13.57;57.77;99039.42;1833083;76;21634;-60
2021/04/01 18:38:22;;;;;;;49.38;30.65;;;;;;;13.49;58.12;99040.41;1820510;75;21528;-63
2021/04/01 18:40:54;;;;;;;42.67;30.17;;;;;;;13.46;58.21;99031.34;1828738;77;21564;-60
2021/04/01 18:43:19;;;;;;;48.87;29.52;;;;;;;13.42;58.39;99042.58;1820819;76;21653;-59
2021/04/01 18:46:13;;;;;;;42.15;29.37;;;;;;;13.38;58.49;99043.72;1831373;77;21630;-58
2021/04/01 18:48:37;;;;;;;44.08;27.77;;;;;;;13.37;58.54;99041.17;1814721;75;21106;-60
2021/04/01 18:51:08;;;;;;;43.50;27.77;;;;;;;13.31;58.71;99032.33;1831802;75;21134;-60
2021/04/01 18:53:45;;;;;;;44.90;27.75;;;;;;;13.28;58.67;99035.13;1823612;76;21538;-59
2021/04/01 18:56:16;;;;;;;45.80;28.07;;;;;;;13.25;58.72;99030.41;1822483;76;22075;-59
2021/04/01 18:58:48;;;;;;;36.20;27.15;;;;;;;13.27;58.72;99028.16;1827023;75;21213;-57
2021/04/01 19:01:27;;;;;;;45.00;25.27;;;;;;;13.23;58.76;99021.75;1825544;75;21586;-57
2021/04/01 19:03:42;;;;;;;35.88;24.12;;;;;;;13.24;58.74;99022.59;1821666;75;21562;-57
2021/04/01 19:06:20;;;;;;;40.33;24.63;;;;;;;13.21;58.79;99021.00;1818531;77;21236;-58
2021/04/01 19:08:56;;;;;;;39.50;23.38;;;;;;;13.20;58.85;99019.33;1822217;75;21922;-59
2021/04/01 19:22:21;;;;;;;33.55;22.55;;;;;;;13.07;58.93;99014.42;1816564;77;22113;-57
2021/04/01 19:24:53;;;;;;;30.32;20.97;;;;;;;13.05;58.91;99009.27;1826471;76;21595;-59
2021/04/01 19:27:21;;;;;;;32.50;22.65;;;;;;;13.06;58.89;99010.10;1826594;76;21614;-58
2021/04/01 19:29:51;;;;;;;41.68;23.62;;;;;;;13.04;58.94;99007.55;1823012;76;21595;-58
2021/04/01 19:32:19;;;;;;;31.48;22.00;;;;;;;13.02;58.99;99007.28;1825364;77;21674;-59
2021/04/01 19:34:47;;;;;;;37.70;23.62;;;;;;;13.00;58.95;99000.78;1771828;79;22058;-58
2021/04/01 19:37:16;;;;;;;33.05;22.62;;;;;;;12.99;58.95;99000.39;1757203;79;21619;-58
2021/04/01 19:39:46;;;;;;;38.78;24.18;;;;;;;12.95;58.99;98998.05;1737170;79;21567;-56
2021/04/01 19:42:16;;;;;;;36.38;24.07;;;;;;;12.93;58.94;98994.67;1770320;78;21579;-57
2021/04/01 19:44:47;;;;;;;34.73;23.32;;;;;;;12.92;58.92;98993.83;1769248;78;21562;-57
2021/04/01 19:47:16;;;;;;;37.70;24.00;;;;;;;12.90;58.85;98991.73;1766864;78;21778;-57
2021/04/01 19:49:44;;;;;;;;;;;;;;;12.87;58.83;98989.30;1768211;78;21654;-58
2021/04/01 19:52:14;;;;;;;35.35;23.05;;;;;;;12.82;59.00;98986.09;1764559;78;20490;-57
2021/04/01 19:54:42;;;;;;;36.93;24.43;;;;;;;12.79;58.82;98987.59;1761876;78;21562;-58
2021/04/01 19:57:13;;;;;;;35.13;23.40;;;;;;;12.75;58.83;98988.29;1767694;78;21664;-57
2021/04/01 19:59:44;;;;;;;34.67;23.90;;;;;;;12.72;58.87;98979.72;1772362;78;21570;-58
2021/04/01 20:02:15;;;;;;;38.98;24.95;;;;;;;12.70;58.85;98981.60;1770702;78;21499;-58
2021/04/01 20:04:42;;;;;;;33.02;23.18;;;;;;;12.69;58.74;98983.38;1771207;78;21576;-57
2021/04/01 20:07:12;;;;;;;37.30;24.27;;;;;;;12.66;58.83;98979.14;1751583;78;21535;-57
2021/04/01 20:09:40;;;;;;;33.33;20.72;;;;;;;12.64;58.83;98988.10;1780678;78;21153;-58
2021/04/01 20:12:09;;;;;;;;;;;;;;;12.62;58.79;98986.87;1778336;78;21962;-59
2021/04/01 20:14:38;;;;;;;37.93;22.82;;;;;;;12.60;58.68;98972.94;1758221;78;20571;-59
2021/04/01 20:17:05;;;;;;;33.60;22.07;;;;;;;12.53;58.72;98975.57;1771020;79;21738;-59
2021/04/01 20:19:34;;;;;;;32.03;23.10;;;;;;;12.52;58.63;98975.18;1767872;78;21610;-58
2021/04/01 20:22:02;;;;;;;33.08;20.80;;;;;;;12.50;58.64;98977.55;1798958;77;21108;-58
2021/04/01 20:24:32;;;;;;;35.13;22.58;;;;;;;12.45;58.71;98974.73;1791048;77;22075;-58
2021/04/01 20:26:59;;;;;;;29.32;21.07;;;;;;;12.45;58.53;98976.05;1789318;78;21833;-59
2021/04/01 20:29:27;;;;;;;33.98;21.80;;;;;;;12.44;58.54;98970.86;1775613;80;21578;-59
2021/04/01 20:31:55;;;;;;;;;;;;;;;12.42;58.56;98968.31;1804360;78;21616;-59
2021/04/01 20:34:22;;;;;;;30.90;22.10;;;;;;;12.38;58.58;98964.17;1790185;78;22208;-57
2021/04/01 20:36:50;;;;;;;;;;;;;;;12.33;58.56;98960.95;1779117;79;21902;-59
2021/04/01 20:39:19;;;;;;;30.52;20.72;;;;;;;12.29;58.65;98959.45;1793451;78;20530;-59
2021/04/01 20:41:46;;;;;;;35.33;21.42;;;;;;;12.27;58.52;98960.86;1791051;77;21603;-62
2021/04/01 20:44:14;;;;;;;33.53;21.85;;;;;;;12.25;58.58;98959.27;1787261;78;21656;-58
2021/04/01 20:46:42;;;;;;;31.97;21.35;;;;;;;12.26;58.61;98959.63;1796431;78;21490;-58
2021/04/01 20:49:10;;;;;;;30.82;21.07;;;;;;;12.23;58.65;98957.20;1785469;78;22048;-58
2021/04/01 20:51:38;;;;;;;31.85;19.50;;;;;;;12.22;58.64;98958.13;1788030;78;21649;-59
2021/04/01 20:54:07;;;;;;;31.37;22.17;;;;;;;12.19;58.63;98947.31;1772490;79;21708;-58
2021/04/01 20:56:36;;;;;;;33.23;21.07;;;;;;;12.20;58.58;98946.83;1792104;78;21663;-67
2021/04/01 20:59:04;;;;;;;;;;;;;;;12.16;58.61;98953.23;1767261;78;21618;-59
2021/04/01 21:01:31;;;;;;;;;;;;;;;12.15;58.54;98947.57;1746378;78;22088;-58
2021/04/01 21:03:59;;;;;;;29.42;20.08;;;;;;;12.06;58.64;98943.24;1756524;80;20588;-60
2021/04/01 21:06:28;;;;;;;26.35;19.20;;;;;;;11.99;58.69;98930.53;1744900;78;21678;-59
2021/04/01 21:08:56;;;;;;;32.17;20.82;;;;;;;11.99;58.76;98933.17;1754218;78;21686;-60
2021/04/01 21:11:25;;;;;;;;;;;;;;;11.98;58.78;98932.33;1762198;78;21169;-58
2021/04/01 21:13:52;;;;;;;28.62;19.02;;;;;;;11.97;58.83;98931.09;1755635;78;22088;-58
2021/04/01 21:16:20;;;;;;;;;;;;;;;11.96;58.70;98931.58;1769440;80;21591;-61
2021/04/01 21:18:48;;;;;;;29.52;18.87;;;;;;;11.96;58.72;98929.39;1764108;78;20582;-58
2021/04/01 21:21:15;;;;;;;;;;;;;;;11.94;58.64;98926.87;1751448;78;21595;-57
2021/04/01 21:23:43;;;;;;;31.12;19.82;;;;;;;11.95;58.67;98921.97;1757079;80;20639;-59
2021/04/01 21:26:14;;;;;;;30.88;19.60;;;;;;;11.93;58.69;98919.89;1747751;80;21953;-59
2021/04/01 21:28:44;;;;;;;29.67;17.25;;;;;;;11.89;58.90;98914.41;1760308;80;21567;-57
2021/04/01 21:31:12;;;;;;;;;;;;;;;11.91;58.78;98913.03;1752205;78;21646;-57
2021/04/01 21:33:42;;;;;;;25.97;18.48;;;;;;;11.87;58.80;98907.06;1741496;81;20567;-57
2021/04/01 21:36:13;;;;;;;32.17;18.85;;;;;;;11.83;58.81;98905.08;1743453;81;21595;-57
2021/04/01 21:38:41;;;;;;;27.52;18.67;;;;;;;11.83;58.87;98904.24;1737028;81;21560;-57
2021/04/01 21:41:11;;;;;;;;;;;;;;;11.84;58.88;98899.34;1751273;81;21181;-57
2021/04/01 21:43:42;;;;;;;24.05;16.50;;;;;;;11.86;58.77;98895.66;1736946;81;20517;-62
2021/04/01 21:46:09;;;;;;;24.55;18.85;;;;;;;11.85;58.78;98893.98;1737076;81;21578;-58
2021/04/01 21:48:38;;;;;;;27.25;18.52;;;;;;;11.85;58.81;98895.30;1734095;81;21568;-57
2021/04/01 21:51:06;;;;;;;24.92;17.65;;;;;;;11.85;58.82;98890.03;1732388;81;21972;-57
2021/04/01 21:53:34;;;;;;;27.58;18.77;;;;;;;11.90;58.72;98890.25;1742370;81;21205;-58
2021/04/01 21:56:04;;;;;;;26.07;17.73;;;;;;;11.88;58.60;98877.13;1742631;81;21699;-58
2021/04/01 21:58:34;;;;;;;23.60;17.60;;;;;;;11.88;58.58;98880.64;1743204;80;21646;-58
2021/04/01 22:01:04;;;;;;;22.60;17.27;;;;;;;11.86;58.56;98874.59;1752423;80;21574;-58
2021/04/01 22:03:33;;;;;;;;;;;;;;;11.87;58.52;98872.83;1756190;80;22042;-58
2021/04/01 22:06:02;;;;;;;21.33;16.27;;;;;;;11.85;58.47;98868.95;1748691;80;20415;-58
2021/04/01 22:08:30;;;;;;;27.37;17.67;;;;;;;11.80;58.44;98859.16;1746510;80;21571;-57
2021/04/01 22:11:02;;;;;;;22.77;17.37;;;;;;;11.81;58.36;98861.31;1746960;80;21570;-58
2021/04/01 22:13:32;;;;;;;23.22;16.65;;;;;;;11.83;58.30;98862.94;1754114;80;21634;-58
2021/04/01 22:16:00;;;;;;;23.73;17.00;;;;;;;11.83;58.26;98864.26;1750196;80;22050;-58
2021/04/01 22:18:28;;;;;;;;;;;;;;;11.84;58.23;98864.62;1761765;80;21681;-58
2021/04/01 22:21:02;;;;;;;21.87;16.42;;;;;;;11.85;58.17;98868.13;1748719;80;20590;-58
2021/04/01 22:23:37;;;;;;;26.20;17.55;;;;;;;11.83;58.18;98866.89;1750860;80;21614;-58
2021/04/01 22:26:06;;;;;;;22.42;16.15;;;;;;;11.80;58.28;98867.06;1748983;79;21639;-58
2021/04/01 22:28:34;;;;;;;23.30;15.68;;;;;;;11.78;58.36;98864.16;1753125;80;22062;-58
2021/04/01 22:31:05;;;;;;;23.07;15.40;;;;;;;11.76;58.40;98865.56;1747018;80;21678;-63
2021/04/01 22:33:40;;;;;;;19.57;15.53;;;;;;;11.71;58.49;98864.14;1748806;80;21111;-58
2021/04/01 22:36:08;;;;;;;22.20;15.08;;;;;;;11.70;58.48;98867.25;1752493;80;21678;-58
2021/04/01 22:38:45;;;;;;;22.87;16.35;;;;;;;11.65;58.62;98864.87;1749320;80;21592;-58
2021/04/01 22:41:19;;;;;;;21.52;16.37;;;;;;;11.61;58.62;98854.16;1755355;80;21922;-58
2021/04/01 22:43:47;;;;;;;25.95;16.80;;;;;;;11.58;58.81;98861.39;1746973;80;21149;-58
2021/04/01 22:46:16;;;;;;;23.25;15.93;;;;;;;11.54;59.06;98866.45;1745216;80;21834;-58
2021/04/01 22:48:46;;;;;;;22.17;17.23;;;;;;;11.50;59.16;98863.16;1746955;80;21579;-58
2021/04/01 22:51:16;;;;;;;23.40;15.65;;;;;;;11.47;59.19;98855.43;1743803;80;21674;-58
2021/04/01 22:53:47;;;;;;;23.15;15.75;;;;;;;11.41;59.38;98855.80;1748548;80;21919;-58
2021/04/01 22:56:17;;;;;;;27.20;17.30;;;;;;;11.41;59.46;98861.06;1770810;79;21591;-58
2021/04/01 22:58:47;;;;;;;23.47;16.87;;;;;;;11.39;59.56;98872.16;1749270;80;21095;-58
2021/04/01 23:01:22;;;;;;;28.98;17.50;;;;;;;11.35;59.71;98866.22;1761844;80;21582;-58
2021/04/01 23:03:50;;;;;;;22.93;17.10;;;;;;;11.31;59.80;98869.97;1770279;78;21619;-58
2021/04/01 23:06:18;;;;;;;;;;;;;;;11.29;59.91;98858.69;1777872;79;21589;-58
2021/04/01 23:08:46;;;;;;;21.93;15.25;;;;;;;11.24;60.07;98854.98;1756522;78;20584;-59